Archival Weather

NSFA McMurdo Sound

NSFA McMurdo Sound, Antarctica (NZCM)

Report from: Friday, September 23, 2022 11:37 AM UTC
Current time: Sunday, December 4, 2022 12:22 PM UTC

Current weather
Weather history
Weather forecast

Present weatherLight snow, mist
Temperature-20.5°C (-4.9°F)
Wind chill-33.1°C (-27.6°F)
Dew point-25.0°C (-13.0°F)
Winds 16 kts (8.2 m/s, 18.4 mph) Vrb
Wind gusts 28 kts (14.4 m/s, 32.2 mph)
Winds variableWinds variable from North-Northeast (30°) to Southeast (140°)
Peak wind 28 kts (14.4 m/s, 32.2 mph) North (360°) at 06:34
Visibility1.1 mi. (1.7 km)
Clouds Ceiling: Overcast 2,000 ft. (610 m)
Altimeter28.62 in.Hg (969 mB)
Precip. events Snow began 11:01 AM
Snow ended 11:27 AM
Snow began 11:37 AM
Relative humidity67 %
Density altitude-2,975 ft. (-907 m)
Sea-level pressure107.0 kPa (1070 mB, 31.59 in.Hg)
Remarks Fully automated report
System requires maintenance
Special weather observation
Automated weather observing station with precipitation discriminator
Flight conditions Instrument Meteorological Conditions
Raw dataSPECI NZCM 231137Z AUTO 08016G28KT 030V140 1700 -SN BR OVC020 M20/M25 A2862 RMK AO2 PK WND 36028/1134 SNB1101E1127B1137 SLP699 T12051250 $
An error has occurred. This application may no longer respond until reloaded. Reload 🗙